sensor_id;sensor_type;location;lat;lon;timestamp;P1;durP1;ratioP1;P2;durP2;ratioP2
10705;SDS011;5404;42.656;23.336;2024-01-06T00:00:14;50.15;;;21.10;;
10705;SDS011;5404;42.656;23.336;2024-01-06T00:02:41;48.38;;;20.60;;
10705;SDS011;5404;42.656;23.336;2024-01-06T00:05:06;72.72;;;21.88;;
10705;SDS011;5404;42.656;23.336;2024-01-06T00:07:32;61.22;;;21.88;;
10705;SDS011;5404;42.656;23.336;2024-01-06T00:09:57;45.40;;;20.13;;
10705;SDS011;5404;42.656;23.336;2024-01-06T00:12:23;61.38;;;22.40;;
10705;SDS011;5404;42.656;23.336;2024-01-06T00:14:48;49.95;;;20.60;;
10705;SDS011;5404;42.656;23.336;2024-01-06T00:17:14;58.25;;;22.70;;
10705;SDS011;5404;42.656;23.336;2024-01-06T00:19:39;59.30;;;24.30;;
10705;SDS011;5404;42.656;23.336;2024-01-06T00:22:04;70.13;;;30.65;;
10705;SDS011;5404;42.656;23.336;2024-01-06T00:24:30;63.53;;;30.83;;
10705;SDS011;5404;42.656;23.336;2024-01-06T00:26:56;72.22;;;26.40;;
10705;SDS011;5404;42.656;23.336;2024-01-06T00:29:21;57.72;;;27.08;;
10705;SDS011;5404;42.656;23.336;2024-01-06T00:31:47;60.90;;;25.63;;
10705;SDS011;5404;42.656;23.336;2024-01-06T00:34:12;62.85;;;25.40;;
10705;SDS011;5404;42.656;23.336;2024-01-06T00:36:38;57.50;;;22.85;;
10705;SDS011;5404;42.656;23.336;2024-01-06T00:39:03;58.13;;;24.70;;
10705;SDS011;5404;42.656;23.336;2024-01-06T00:41:28;69.47;;;24.98;;
10705;SDS011;5404;42.656;23.336;2024-01-06T00:43:55;66.00;;;23.13;;
10705;SDS011;5404;42.656;23.336;2024-01-06T00:46:21;66.63;;;26.70;;
10705;SDS011;5404;42.656;23.336;2024-01-06T00:48:46;57.70;;;23.83;;
10705;SDS011;5404;42.656;23.336;2024-01-06T00:51:12;75.47;;;26.40;;
10705;SDS011;5404;42.656;23.336;2024-01-06T00:53:37;64.57;;;24.30;;
10705;SDS011;5404;42.656;23.336;2024-01-06T00:56:02;60.03;;;23.73;;
10705;SDS011;5404;42.656;23.336;2024-01-06T00:58:28;71.70;;;23.92;;
10705;SDS011;5404;42.656;23.336;2024-01-06T01:00:53;49.97;;;21.77;;
10705;SDS011;5404;42.656;23.336;2024-01-06T01:03:19;47.90;;;21.23;;
10705;SDS011;5404;42.656;23.336;2024-01-06T01:05:44;49.15;;;22.70;;
10705;SDS011;5404;42.656;23.336;2024-01-06T01:08:10;65.47;;;30.23;;
10705;SDS011;5404;42.656;23.336;2024-01-06T01:10:35;51.38;;;22.60;;
10705;SDS011;5404;42.656;23.336;2024-01-06T01:13:00;55.42;;;21.10;;
10705;SDS011;5404;42.656;23.336;2024-01-06T01:15:26;54.88;;;22.50;;
10705;SDS011;5404;42.656;23.336;2024-01-06T01:17:51;52.85;;;22.13;;
10705;SDS011;5404;42.656;23.336;2024-01-06T01:20:17;59.75;;;22.35;;
10705;SDS011;5404;42.656;23.336;2024-01-06T01:22:42;68.90;;;23.25;;
10705;SDS011;5404;42.656;23.336;2024-01-06T01:25:07;55.00;;;21.88;;
10705;SDS011;5404;42.656;23.336;2024-01-06T01:27:36;49.85;;;23.77;;
10705;SDS011;5404;42.656;23.336;2024-01-06T01:30:01;62.17;;;21.65;;
10705;SDS011;5404;42.656;23.336;2024-01-06T01:32:26;42.50;;;20.80;;
10705;SDS011;5404;42.656;23.336;2024-01-06T01:34:52;47.55;;;22.33;;
10705;SDS011;5404;42.656;23.336;2024-01-06T01:37:17;56.67;;;22.02;;
10705;SDS011;5404;42.656;23.336;2024-01-06T01:39:43;48.53;;;20.08;;
10705;SDS011;5404;42.656;23.336;2024-01-06T01:42:09;56.92;;;20.85;;
10705;SDS011;5404;42.656;23.336;2024-01-06T01:44:34;57.58;;;21.70;;
10705;SDS011;5404;42.656;23.336;2024-01-06T01:46:59;50.63;;;20.27;;
10705;SDS011;5404;42.656;23.336;2024-01-06T01:49:25;48.22;;;20.65;;
10705;SDS011;5404;42.656;23.336;2024-01-06T01:51:51;45.92;;;19.77;;
10705;SDS011;5404;42.656;23.336;2024-01-06T01:54:17;53.22;;;21.08;;
10705;SDS011;5404;42.656;23.336;2024-01-06T01:56:43;55.17;;;20.15;;
10705;SDS011;5404;42.656;23.336;2024-01-06T01:59:12;61.90;;;20.27;;
10705;SDS011;5404;42.656;23.336;2024-01-06T02:01:41;58.65;;;22.15;;
10705;SDS011;5404;42.656;23.336;2024-01-06T02:04:07;55.75;;;22.33;;
10705;SDS011;5404;42.656;23.336;2024-01-06T02:06:33;57.58;;;21.40;;
10705;SDS011;5404;42.656;23.336;2024-01-06T02:08:59;53.38;;;20.88;;
10705;SDS011;5404;42.656;23.336;2024-01-06T02:11:24;43.90;;;19.02;;
10705;SDS011;5404;42.656;23.336;2024-01-06T02:13:50;68.07;;;30.27;;
10705;SDS011;5404;42.656;23.336;2024-01-06T02:16:15;41.33;;;19.67;;
10705;SDS011;5404;42.656;23.336;2024-01-06T02:18:40;51.95;;;21.35;;
10705;SDS011;5404;42.656;23.336;2024-01-06T02:21:06;49.00;;;18.40;;
10705;SDS011;5404;42.656;23.336;2024-01-06T02:23:33;39.03;;;16.83;;
10705;SDS011;5404;42.656;23.336;2024-01-06T02:26:00;57.65;;;18.42;;
10705;SDS011;5404;42.656;23.336;2024-01-06T02:28:26;49.08;;;17.88;;
10705;SDS011;5404;42.656;23.336;2024-01-06T02:30:52;53.10;;;18.85;;
10705;SDS011;5404;42.656;23.336;2024-01-06T02:33:17;43.72;;;16.73;;
10705;SDS011;5404;42.656;23.336;2024-01-06T02:35:44;38.67;;;17.25;;
10705;SDS011;5404;42.656;23.336;2024-01-06T02:38:10;48.33;;;19.27;;
10705;SDS011;5404;42.656;23.336;2024-01-06T02:40:36;48.92;;;20.70;;
10705;SDS011;5404;42.656;23.336;2024-01-06T02:43:01;49.83;;;20.60;;
10705;SDS011;5404;42.656;23.336;2024-01-06T02:45:27;43.05;;;19.98;;
10705;SDS011;5404;42.656;23.336;2024-01-06T02:47:52;54.25;;;20.75;;
10705;SDS011;5404;42.656;23.336;2024-01-06T02:50:17;59.38;;;20.98;;
10705;SDS011;5404;42.656;23.336;2024-01-06T02:52:43;53.33;;;20.27;;
10705;SDS011;5404;42.656;23.336;2024-01-06T02:55:10;52.83;;;22.48;;
10705;SDS011;5404;42.656;23.336;2024-01-06T02:57:35;56.47;;;22.55;;
10705;SDS011;5404;42.656;23.336;2024-01-06T03:00:01;46.08;;;21.45;;
10705;SDS011;5404;42.656;23.336;2024-01-06T03:02:26;53.42;;;22.88;;
10705;SDS011;5404;42.656;23.336;2024-01-06T03:04:52;55.80;;;23.08;;
10705;SDS011;5404;42.656;23.336;2024-01-06T03:07:17;45.03;;;21.73;;
10705;SDS011;5404;42.656;23.336;2024-01-06T03:09:44;45.08;;;21.27;;
10705;SDS011;5404;42.656;23.336;2024-01-06T03:12:09;48.33;;;20.83;;
10705;SDS011;5404;42.656;23.336;2024-01-06T03:14:35;54.25;;;21.15;;
10705;SDS011;5404;42.656;23.336;2024-01-06T03:17:00;46.90;;;21.45;;
10705;SDS011;5404;42.656;23.336;2024-01-06T03:19:26;48.33;;;20.55;;
10705;SDS011;5404;42.656;23.336;2024-01-06T03:21:52;55.45;;;19.40;;
10705;SDS011;5404;42.656;23.336;2024-01-06T03:24:18;45.17;;;19.05;;
10705;SDS011;5404;42.656;23.336;2024-01-06T03:26:44;55.95;;;17.95;;
10705;SDS011;5404;42.656;23.336;2024-01-06T03:29:09;39.72;;;14.85;;
10705;SDS011;5404;42.656;23.336;2024-01-06T03:31:35;28.58;;;11.45;;
10705;SDS011;5404;42.656;23.336;2024-01-06T03:34:00;27.73;;;10.30;;
10705;SDS011;5404;42.656;23.336;2024-01-06T03:36:25;20.67;;;9.85;;
10705;SDS011;5404;42.656;23.336;2024-01-06T03:38:51;22.20;;;10.32;;
10705;SDS011;5404;42.656;23.336;2024-01-06T03:41:16;19.50;;;8.82;;
10705;SDS011;5404;42.656;23.336;2024-01-06T03:43:42;29.75;;;10.93;;
10705;SDS011;5404;42.656;23.336;2024-01-06T03:46:07;33.95;;;10.60;;
10705;SDS011;5404;42.656;23.336;2024-01-06T03:48:32;20.10;;;9.43;;
10705;SDS011;5404;42.656;23.336;2024-01-06T03:51:01;25.27;;;9.45;;
10705;SDS011;5404;42.656;23.336;2024-01-06T03:53:27;22.67;;;9.75;;
10705;SDS011;5404;42.656;23.336;2024-01-06T03:55:53;34.58;;;13.05;;
10705;SDS011;5404;42.656;23.336;2024-01-06T03:58:18;24.35;;;10.13;;
10705;SDS011;5404;42.656;23.336;2024-01-06T04:00:43;24.08;;;10.85;;
10705;SDS011;5404;42.656;23.336;2024-01-06T04:03:09;32.67;;;11.57;;
10705;SDS011;5404;42.656;23.336;2024-01-06T04:05:34;30.63;;;11.40;;
10705;SDS011;5404;42.656;23.336;2024-01-06T04:08:00;27.75;;;11.13;;
10705;SDS011;5404;42.656;23.336;2024-01-06T04:10:25;24.45;;;10.70;;
10705;SDS011;5404;42.656;23.336;2024-01-06T04:12:50;25.35;;;10.05;;
10705;SDS011;5404;42.656;23.336;2024-01-06T04:15:16;29.25;;;10.95;;
10705;SDS011;5404;42.656;23.336;2024-01-06T04:17:42;30.85;;;10.68;;
10705;SDS011;5404;42.656;23.336;2024-01-06T04:20:07;24.50;;;12.15;;
10705;SDS011;5404;42.656;23.336;2024-01-06T04:22:33;29.13;;;11.77;;
10705;SDS011;5404;42.656;23.336;2024-01-06T04:24:58;24.63;;;12.45;;
10705;SDS011;5404;42.656;23.336;2024-01-06T04:27:24;28.55;;;13.13;;
10705;SDS011;5404;42.656;23.336;2024-01-06T04:29:49;32.10;;;13.02;;
10705;SDS011;5404;42.656;23.336;2024-01-06T04:32:18;29.08;;;11.77;;
10705;SDS011;5404;42.656;23.336;2024-01-06T04:34:44;20.50;;;10.63;;
10705;SDS011;5404;42.656;23.336;2024-01-06T04:37:09;26.70;;;12.23;;
10705;SDS011;5404;42.656;23.336;2024-01-06T04:39:34;24.98;;;12.23;;
10705;SDS011;5404;42.656;23.336;2024-01-06T04:42:00;40.25;;;16.30;;
10705;SDS011;5404;42.656;23.336;2024-01-06T04:44:25;32.20;;;12.98;;
10705;SDS011;5404;42.656;23.336;2024-01-06T04:46:50;26.90;;;13.77;;
10705;SDS011;5404;42.656;23.336;2024-01-06T04:49:16;45.25;;;15.38;;
10705;SDS011;5404;42.656;23.336;2024-01-06T04:51:41;23.00;;;10.85;;
10705;SDS011;5404;42.656;23.336;2024-01-06T04:54:07;29.42;;;12.38;;
10705;SDS011;5404;42.656;23.336;2024-01-06T04:56:32;35.60;;;13.50;;
10705;SDS011;5404;42.656;23.336;2024-01-06T04:58:57;32.33;;;13.20;;
10705;SDS011;5404;42.656;23.336;2024-01-06T05:01:23;29.48;;;12.13;;
10705;SDS011;5404;42.656;23.336;2024-01-06T05:03:49;35.67;;;13.95;;
10705;SDS011;5404;42.656;23.336;2024-01-06T05:06:14;30.05;;;12.63;;
10705;SDS011;5404;42.656;23.336;2024-01-06T05:08:40;26.05;;;11.98;;
10705;SDS011;5404;42.656;23.336;2024-01-06T05:11:09;26.48;;;11.98;;
10705;SDS011;5404;42.656;23.336;2024-01-06T05:13:35;38.00;;;13.52;;
10705;SDS011;5404;42.656;23.336;2024-01-06T05:16:00;34.22;;;12.23;;
10705;SDS011;5404;42.656;23.336;2024-01-06T05:18:26;26.05;;;11.38;;
10705;SDS011;5404;42.656;23.336;2024-01-06T05:20:51;30.60;;;11.13;;
10705;SDS011;5404;42.656;23.336;2024-01-06T05:23:17;30.42;;;11.88;;
10705;SDS011;5404;42.656;23.336;2024-01-06T05:25:42;36.05;;;12.80;;
10705;SDS011;5404;42.656;23.336;2024-01-06T05:28:08;30.08;;;11.45;;
10705;SDS011;5404;42.656;23.336;2024-01-06T05:30:33;31.80;;;11.45;;
10705;SDS011;5404;42.656;23.336;2024-01-06T05:32:59;33.13;;;12.75;;
10705;SDS011;5404;42.656;23.336;2024-01-06T05:35:24;28.15;;;12.95;;
10705;SDS011;5404;42.656;23.336;2024-01-06T05:37:50;31.02;;;13.15;;
10705;SDS011;5404;42.656;23.336;2024-01-06T05:40:15;34.40;;;12.23;;
10705;SDS011;5404;42.656;23.336;2024-01-06T05:42:41;23.80;;;10.23;;
10705;SDS011;5404;42.656;23.336;2024-01-06T05:45:06;24.00;;;11.55;;
10705;SDS011;5404;42.656;23.336;2024-01-06T05:47:36;23.35;;;10.80;;
10705;SDS011;5404;42.656;23.336;2024-01-06T05:50:02;26.23;;;10.77;;
10705;SDS011;5404;42.656;23.336;2024-01-06T05:52:27;23.50;;;11.50;;
10705;SDS011;5404;42.656;23.336;2024-01-06T05:54:53;31.65;;;10.30;;
10705;SDS011;5404;42.656;23.336;2024-01-06T05:57:18;20.15;;;9.70;;
10705;SDS011;5404;42.656;23.336;2024-01-06T05:59:44;25.10;;;10.93;;
10705;SDS011;5404;42.656;23.336;2024-01-06T06:02:09;23.42;;;10.25;;
10705;SDS011;5404;42.656;23.336;2024-01-06T06:04:34;21.17;;;9.60;;
10705;SDS011;5404;42.656;23.336;2024-01-06T06:07:00;32.53;;;11.70;;
10705;SDS011;5404;42.656;23.336;2024-01-06T06:09:27;24.52;;;10.55;;
10705;SDS011;5404;42.656;23.336;2024-01-06T06:11:53;33.75;;;11.23;;
10705;SDS011;5404;42.656;23.336;2024-01-06T06:14:19;25.92;;;10.85;;
10705;SDS011;5404;42.656;23.336;2024-01-06T06:16:44;33.78;;;11.93;;
10705;SDS011;5404;42.656;23.336;2024-01-06T06:19:10;29.55;;;10.80;;
10705;SDS011;5404;42.656;23.336;2024-01-06T06:21:35;24.20;;;10.57;;
10705;SDS011;5404;42.656;23.336;2024-01-06T06:24:01;36.40;;;10.70;;
10705;SDS011;5404;42.656;23.336;2024-01-06T06:26:27;31.98;;;13.95;;
10705;SDS011;5404;42.656;23.336;2024-01-06T06:28:53;24.52;;;11.82;;
10705;SDS011;5404;42.656;23.336;2024-01-06T06:31:19;56.28;;;18.85;;
10705;SDS011;5404;42.656;23.336;2024-01-06T06:33:44;35.03;;;14.77;;
10705;SDS011;5404;42.656;23.336;2024-01-06T06:36:10;45.75;;;17.42;;
10705;SDS011;5404;42.656;23.336;2024-01-06T06:38:35;41.40;;;16.90;;
10705;SDS011;5404;42.656;23.336;2024-01-06T06:41:01;30.83;;;13.15;;
10705;SDS011;5404;42.656;23.336;2024-01-06T06:43:26;25.67;;;12.57;;
10705;SDS011;5404;42.656;23.336;2024-01-06T06:45:52;38.40;;;14.55;;
10705;SDS011;5404;42.656;23.336;2024-01-06T06:48:20;34.00;;;13.10;;
10705;SDS011;5404;42.656;23.336;2024-01-06T06:50:45;38.80;;;14.00;;
10705;SDS011;5404;42.656;23.336;2024-01-06T06:53:11;36.22;;;12.68;;
10705;SDS011;5404;42.656;23.336;2024-01-06T06:55:37;21.25;;;11.63;;
10705;SDS011;5404;42.656;23.336;2024-01-06T06:58:03;35.13;;;13.73;;
10705;SDS011;5404;42.656;23.336;2024-01-06T07:00:30;38.78;;;13.15;;
10705;SDS011;5404;42.656;23.336;2024-01-06T07:02:55;30.75;;;11.63;;
10705;SDS011;5404;42.656;23.336;2024-01-06T07:05:21;22.05;;;11.65;;
10705;SDS011;5404;42.656;23.336;2024-01-06T07:07:47;38.47;;;14.88;;
10705;SDS011;5404;42.656;23.336;2024-01-06T07:10:12;32.67;;;13.35;;
10705;SDS011;5404;42.656;23.336;2024-01-06T07:12:38;35.70;;;13.50;;
10705;SDS011;5404;42.656;23.336;2024-01-06T07:15:04;28.45;;;13.70;;
10705;SDS011;5404;42.656;23.336;2024-01-06T07:17:30;37.40;;;14.63;;
10705;SDS011;5404;42.656;23.336;2024-01-06T07:19:55;27.90;;;13.88;;
10705;SDS011;5404;42.656;23.336;2024-01-06T07:22:20;28.90;;;12.77;;
10705;SDS011;5404;42.656;23.336;2024-01-06T07:24:46;28.35;;;13.00;;
10705;SDS011;5404;42.656;23.336;2024-01-06T07:27:11;36.22;;;14.18;;
10705;SDS011;5404;42.656;23.336;2024-01-06T07:29:37;34.28;;;13.02;;
10705;SDS011;5404;42.656;23.336;2024-01-06T07:32:03;39.97;;;14.30;;
10705;SDS011;5404;42.656;23.336;2024-01-06T07:34:31;39.45;;;13.48;;
10705;SDS011;5404;42.656;23.336;2024-01-06T07:36:56;39.45;;;14.57;;
10705;SDS011;5404;42.656;23.336;2024-01-06T07:39:22;38.50;;;15.38;;
10705;SDS011;5404;42.656;23.336;2024-01-06T07:41:49;29.17;;;13.70;;
10705;SDS011;5404;42.656;23.336;2024-01-06T07:44:15;37.58;;;14.57;;
10705;SDS011;5404;42.656;23.336;2024-01-06T07:46:44;27.95;;;12.50;;
10705;SDS011;5404;42.656;23.336;2024-01-06T07:49:09;35.35;;;13.70;;
10705;SDS011;5404;42.656;23.336;2024-01-06T07:51:34;37.10;;;14.00;;
10705;SDS011;5404;42.656;23.336;2024-01-06T07:54:00;33.85;;;13.05;;
10705;SDS011;5404;42.656;23.336;2024-01-06T07:56:26;34.35;;;13.73;;
10705;SDS011;5404;42.656;23.336;2024-01-06T07:58:52;24.48;;;12.05;;
10705;SDS011;5404;42.656;23.336;2024-01-06T08:01:17;33.97;;;13.45;;
10705;SDS011;5404;42.656;23.336;2024-01-06T08:03:43;33.13;;;14.90;;
10705;SDS011;5404;42.656;23.336;2024-01-06T08:06:09;42.80;;;15.60;;
10705;SDS011;5404;42.656;23.336;2024-01-06T08:08:35;53.55;;;16.15;;
10705;SDS011;5404;42.656;23.336;2024-01-06T08:11:00;35.83;;;15.30;;
10705;SDS011;5404;42.656;23.336;2024-01-06T08:13:26;33.60;;;15.35;;
10705;SDS011;5404;42.656;23.336;2024-01-06T08:15:51;36.10;;;13.65;;
10705;SDS011;5404;42.656;23.336;2024-01-06T08:18:17;29.08;;;13.70;;
10705;SDS011;5404;42.656;23.336;2024-01-06T08:20:43;30.20;;;13.38;;
10705;SDS011;5404;42.656;23.336;2024-01-06T08:23:08;35.33;;;14.55;;
10705;SDS011;5404;42.656;23.336;2024-01-06T08:25:34;39.88;;;15.50;;
10705;SDS011;5404;42.656;23.336;2024-01-06T08:27:59;28.05;;;13.65;;
10705;SDS011;5404;42.656;23.336;2024-01-06T08:30:25;33.92;;;13.63;;
10705;SDS011;5404;42.656;23.336;2024-01-06T08:32:50;39.45;;;16.55;;
10705;SDS011;5404;42.656;23.336;2024-01-06T08:35:20;35.90;;;13.38;;
10705;SDS011;5404;42.656;23.336;2024-01-06T08:37:45;45.15;;;15.52;;
10705;SDS011;5404;42.656;23.336;2024-01-06T08:40:11;45.13;;;13.40;;
10705;SDS011;5404;42.656;23.336;2024-01-06T08:42:37;27.45;;;13.68;;
10705;SDS011;5404;42.656;23.336;2024-01-06T08:45:03;33.25;;;13.18;;
10705;SDS011;5404;42.656;23.336;2024-01-06T08:47:29;28.92;;;11.50;;
10705;SDS011;5404;42.656;23.336;2024-01-06T08:49:55;36.38;;;13.10;;
10705;SDS011;5404;42.656;23.336;2024-01-06T08:52:21;24.38;;;11.90;;
10705;SDS011;5404;42.656;23.336;2024-01-06T08:54:46;30.60;;;12.20;;
10705;SDS011;5404;42.656;23.336;2024-01-06T08:57:11;32.28;;;11.88;;
10705;SDS011;5404;42.656;23.336;2024-01-06T08:59:37;29.08;;;11.90;;
10705;SDS011;5404;42.656;23.336;2024-01-06T09:02:03;30.10;;;11.82;;
10705;SDS011;5404;42.656;23.336;2024-01-06T09:04:28;33.15;;;12.00;;
10705;SDS011;5404;42.656;23.336;2024-01-06T09:06:54;22.52;;;12.13;;
10705;SDS011;5404;42.656;23.336;2024-01-06T09:09:19;26.02;;;11.60;;
10705;SDS011;5404;42.656;23.336;2024-01-06T09:11:44;30.70;;;12.23;;
10705;SDS011;5404;42.656;23.336;2024-01-06T09:14:11;32.08;;;12.38;;
10705;SDS011;5404;42.656;23.336;2024-01-06T09:16:36;25.65;;;11.27;;
10705;SDS011;5404;42.656;23.336;2024-01-06T09:19:02;30.88;;;13.18;;
10705;SDS011;5404;42.656;23.336;2024-01-06T09:21:27;28.55;;;11.48;;
10705;SDS011;5404;42.656;23.336;2024-01-06T09:23:53;30.63;;;12.27;;
10705;SDS011;5404;42.656;23.336;2024-01-06T09:26:18;32.45;;;11.48;;
10705;SDS011;5404;42.656;23.336;2024-01-06T09:28:44;38.50;;;12.57;;
10705;SDS011;5404;42.656;23.336;2024-01-06T09:31:09;30.35;;;11.77;;
10705;SDS011;5404;42.656;23.336;2024-01-06T09:33:35;30.48;;;13.23;;
10705;SDS011;5404;42.656;23.336;2024-01-06T09:36:00;35.85;;;13.20;;
10705;SDS011;5404;42.656;23.336;2024-01-06T09:38:27;35.58;;;14.20;;
10705;SDS011;5404;42.656;23.336;2024-01-06T09:40:52;32.22;;;15.93;;
10705;SDS011;5404;42.656;23.336;2024-01-06T09:43:18;42.28;;;13.00;;
10705;SDS011;5404;42.656;23.336;2024-01-06T09:45:45;29.35;;;14.60;;
10705;SDS011;5404;42.656;23.336;2024-01-06T09:48:19;40.28;;;14.07;;
10705;SDS011;5404;42.656;23.336;2024-01-06T09:50:53;33.58;;;13.77;;
10705;SDS011;5404;42.656;23.336;2024-01-06T09:53:21;37.67;;;13.07;;
10705;SDS011;5404;42.656;23.336;2024-01-06T09:55:52;33.10;;;13.55;;
10705;SDS011;5404;42.656;23.336;2024-01-06T09:58:19;21.98;;;9.38;;
10705;SDS011;5404;42.656;23.336;2024-01-06T10:00:44;31.35;;;12.38;;
10705;SDS011;5404;42.656;23.336;2024-01-06T10:03:13;32.22;;;14.32;;
10705;SDS011;5404;42.656;23.336;2024-01-06T10:05:38;60.13;;;16.63;;
10705;SDS011;5404;42.656;23.336;2024-01-06T10:08:04;33.60;;;13.57;;
10705;SDS011;5404;42.656;23.336;2024-01-06T10:10:29;33.20;;;12.48;;
10705;SDS011;5404;42.656;23.336;2024-01-06T10:12:55;30.02;;;14.70;;
10705;SDS011;5404;42.656;23.336;2024-01-06T10:15:20;50.30;;;15.90;;
10705;SDS011;5404;42.656;23.336;2024-01-06T10:17:46;40.35;;;15.27;;
10705;SDS011;5404;42.656;23.336;2024-01-06T10:20:12;34.25;;;15.15;;
10705;SDS011;5404;42.656;23.336;2024-01-06T10:22:40;39.55;;;14.35;;
10705;SDS011;5404;42.656;23.336;2024-01-06T10:25:10;40.92;;;18.05;;
10705;SDS011;5404;42.656;23.336;2024-01-06T10:27:39;66.97;;;26.33;;
10705;SDS011;5404;42.656;23.336;2024-01-06T10:30:06;61.25;;;25.70;;
10705;SDS011;5404;42.656;23.336;2024-01-06T10:32:54;60.88;;;24.85;;
10705;SDS011;5404;42.656;23.336;2024-01-06T10:35:19;59.05;;;23.75;;
10705;SDS011;5404;42.656;23.336;2024-01-06T10:37:45;47.40;;;22.67;;
10705;SDS011;5404;42.656;23.336;2024-01-06T10:42:39;62.35;;;22.55;;
10705;SDS011;5404;42.656;23.336;2024-01-06T10:45:09;49.67;;;21.30;;
10705;SDS011;5404;42.656;23.336;2024-01-06T10:47:36;51.38;;;23.05;;
10705;SDS011;5404;42.656;23.336;2024-01-06T10:50:03;54.55;;;24.17;;
10705;SDS011;5404;42.656;23.336;2024-01-06T10:52:29;53.63;;;20.13;;
10705;SDS011;5404;42.656;23.336;2024-01-06T10:54:55;45.25;;;20.23;;
10705;SDS011;5404;42.656;23.336;2024-01-06T10:57:21;49.22;;;20.60;;
10705;SDS011;5404;42.656;23.336;2024-01-06T10:59:49;44.97;;;20.63;;
10705;SDS011;5404;42.656;23.336;2024-01-06T11:02:15;50.75;;;20.80;;
10705;SDS011;5404;42.656;23.336;2024-01-06T11:04:45;51.42;;;22.10;;
10705;SDS011;5404;42.656;23.336;2024-01-06T11:07:16;44.35;;;21.15;;
10705;SDS011;5404;42.656;23.336;2024-01-06T11:09:47;48.25;;;22.52;;
10705;SDS011;5404;42.656;23.336;2024-01-06T11:12:17;47.42;;;21.60;;
10705;SDS011;5404;42.656;23.336;2024-01-06T11:14:44;57.10;;;21.92;;
10705;SDS011;5404;42.656;23.336;2024-01-06T11:17:11;77.03;;;23.77;;
10705;SDS011;5404;42.656;23.336;2024-01-06T11:24:49;57.85;;;22.65;;
10705;SDS011;5404;42.656;23.336;2024-01-06T11:27:26;50.97;;;21.17;;
10705;SDS011;5404;42.656;23.336;2024-01-06T11:29:56;44.53;;;18.85;;
10705;SDS011;5404;42.656;23.336;2024-01-06T11:35:08;43.10;;;18.52;;
10705;SDS011;5404;42.656;23.336;2024-01-06T11:37:36;46.63;;;13.73;;
10705;SDS011;5404;42.656;23.336;2024-01-06T11:40:11;36.33;;;15.05;;
10705;SDS011;5404;42.656;23.336;2024-01-06T11:43:00;32.70;;;12.50;;
10705;SDS011;5404;42.656;23.336;2024-01-06T11:45:35;37.08;;;12.40;;
10705;SDS011;5404;42.656;23.336;2024-01-06T11:48:03;33.88;;;13.73;;
10705;SDS011;5404;42.656;23.336;2024-01-06T11:50:33;31.08;;;11.52;;
10705;SDS011;5404;42.656;23.336;2024-01-06T11:53:01;27.77;;;10.95;;
10705;SDS011;5404;42.656;23.336;2024-01-06T11:55:28;27.23;;;10.40;;
10705;SDS011;5404;42.656;23.336;2024-01-06T11:57:54;36.67;;;11.85;;
10705;SDS011;5404;42.656;23.336;2024-01-06T12:00:21;22.58;;;10.73;;
10705;SDS011;5404;42.656;23.336;2024-01-06T12:02:47;30.95;;;11.75;;
10705;SDS011;5404;42.656;23.336;2024-01-06T12:05:13;25.85;;;12.05;;
10705;SDS011;5404;42.656;23.336;2024-01-06T12:07:43;34.38;;;11.73;;
10705;SDS011;5404;42.656;23.336;2024-01-06T12:10:22;25.13;;;10.02;;
10705;SDS011;5404;42.656;23.336;2024-01-06T12:12:55;25.60;;;10.63;;
10705;SDS011;5404;42.656;23.336;2024-01-06T12:15:28;31.73;;;11.68;;
10705;SDS011;5404;42.656;23.336;2024-01-06T12:17:55;22.93;;;10.80;;
10705;SDS011;5404;42.656;23.336;2024-01-06T12:20:21;22.42;;;10.70;;
10705;SDS011;5404;42.656;23.336;2024-01-06T12:22:48;27.23;;;11.02;;
10705;SDS011;5404;42.656;23.336;2024-01-06T12:25:15;71.82;;;27.60;;
10705;SDS011;5404;42.656;23.336;2024-01-06T12:27:43;51.03;;;19.30;;
10705;SDS011;5404;42.656;23.336;2024-01-06T12:30:16;33.33;;;15.48;;
10705;SDS011;5404;42.656;23.336;2024-01-06T12:32:47;36.55;;;12.88;;
10705;SDS011;5404;42.656;23.336;2024-01-06T12:35:14;25.58;;;11.43;;
10705;SDS011;5404;42.656;23.336;2024-01-06T12:37:41;29.30;;;10.13;;
10705;SDS011;5404;42.656;23.336;2024-01-06T12:40:10;26.05;;;11.35;;
10705;SDS011;5404;42.656;23.336;2024-01-06T12:42:37;29.65;;;15.57;;
10705;SDS011;5404;42.656;23.336;2024-01-06T12:45:03;42.80;;;12.07;;
10705;SDS011;5404;42.656;23.336;2024-01-06T12:47:29;26.33;;;10.88;;
10705;SDS011;5404;42.656;23.336;2024-01-06T12:49:55;32.47;;;12.30;;
10705;SDS011;5404;42.656;23.336;2024-01-06T12:52:20;26.60;;;11.63;;
10705;SDS011;5404;42.656;23.336;2024-01-06T12:54:45;29.38;;;11.90;;
10705;SDS011;5404;42.656;23.336;2024-01-06T12:57:11;36.50;;;15.50;;
10705;SDS011;5404;42.656;23.336;2024-01-06T12:59:36;33.53;;;14.13;;
10705;SDS011;5404;42.656;23.336;2024-01-06T13:02:02;41.63;;;12.60;;
10705;SDS011;5404;42.656;23.336;2024-01-06T13:04:27;28.80;;;12.52;;
10705;SDS011;5404;42.656;23.336;2024-01-06T13:06:53;40.47;;;13.50;;
10705;SDS011;5404;42.656;23.336;2024-01-06T13:09:18;24.80;;;11.30;;
10705;SDS011;5404;42.656;23.336;2024-01-06T13:11:44;24.15;;;11.98;;
10705;SDS011;5404;42.656;23.336;2024-01-06T13:14:12;31.80;;;12.90;;
10705;SDS011;5404;42.656;23.336;2024-01-06T13:16:38;35.58;;;12.70;;
10705;SDS011;5404;42.656;23.336;2024-01-06T13:19:03;35.22;;;12.05;;
10705;SDS011;5404;42.656;23.336;2024-01-06T13:21:29;30.90;;;13.05;;
10705;SDS011;5404;42.656;23.336;2024-01-06T13:23:55;36.08;;;13.52;;
10705;SDS011;5404;42.656;23.336;2024-01-06T13:26:25;29.95;;;11.73;;
10705;SDS011;5404;42.656;23.336;2024-01-06T13:28:52;32.95;;;14.02;;
10705;SDS011;5404;42.656;23.336;2024-01-06T13:31:18;33.67;;;13.45;;
10705;SDS011;5404;42.656;23.336;2024-01-06T13:33:44;41.03;;;12.10;;
10705;SDS011;5404;42.656;23.336;2024-01-06T13:36:09;32.13;;;12.95;;
10705;SDS011;5404;42.656;23.336;2024-01-06T13:38:34;32.83;;;12.38;;
10705;SDS011;5404;42.656;23.336;2024-01-06T13:41:00;37.58;;;12.93;;
10705;SDS011;5404;42.656;23.336;2024-01-06T13:43:26;29.50;;;10.00;;
10705;SDS011;5404;42.656;23.336;2024-01-06T13:45:51;29.00;;;9.73;;
10705;SDS011;5404;42.656;23.336;2024-01-06T13:48:17;22.58;;;9.88;;
10705;SDS011;5404;42.656;23.336;2024-01-06T13:50:43;22.67;;;8.73;;
10705;SDS011;5404;42.656;23.336;2024-01-06T13:53:10;22.77;;;9.27;;
10705;SDS011;5404;42.656;23.336;2024-01-06T13:55:35;23.85;;;9.00;;
10705;SDS011;5404;42.656;23.336;2024-01-06T13:58:01;21.05;;;7.75;;
10705;SDS011;5404;42.656;23.336;2024-01-06T14:00:26;24.40;;;8.68;;
10705;SDS011;5404;42.656;23.336;2024-01-06T14:02:52;36.10;;;13.98;;
10705;SDS011;5404;42.656;23.336;2024-01-06T14:05:19;32.60;;;13.85;;
10705;SDS011;5404;42.656;23.336;2024-01-06T14:07:44;37.80;;;13.68;;
10705;SDS011;5404;42.656;23.336;2024-01-06T14:10:12;29.17;;;11.48;;
10705;SDS011;5404;42.656;23.336;2024-01-06T14:12:39;29.08;;;9.07;;
10705;SDS011;5404;42.656;23.336;2024-01-06T14:15:05;23.55;;;12.57;;
10705;SDS011;5404;42.656;23.336;2024-01-06T14:17:33;30.70;;;11.95;;
10705;SDS011;5404;42.656;23.336;2024-01-06T14:19:58;28.10;;;10.25;;
10705;SDS011;5404;42.656;23.336;2024-01-06T14:22:25;28.75;;;11.82;;
10705;SDS011;5404;42.656;23.336;2024-01-06T14:24:51;24.95;;;10.07;;